Time;durP1;ratioP1;P1;durP2;ratioP2;P2;SDS_P1;SDS_P2;PMS_P1;PMS_P2;Temp;Humidity;BMP_temperature;BMP_pressure;BME280_temperature;BME280_humidity;BME280_pressure;Samples;Min_cycle;Max_cycle;Signal;HPM_P1;HPM_P2
2021/03/17 00:00:41;;;;;;;;;;;;;;;;;;5030236;28;847;-63
2021/03/17 00:03:07;;;;;;;;;;;;;;;;;;5029455;28;891;-62
2021/03/17 00:05:34;;;;;;;;;;;;;;;;;;5029207;28;930;-62
2021/03/17 00:07:59;;;;;;;;;;;;;;;;;;5028220;28;899;-63
2021/03/17 00:10:25;;;;;;;;;;;;;;;;;;5030943;28;1914;-62
2021/03/17 00:12:51;;;;;;;;;;;;;;;;;;5030754;28;835;-62
2021/03/17 00:15:19;;;;;;;;;;;;;;;;;;5029773;28;900;-62
2021/03/17 00:17:44;;;;;;;;;;;;;;;;;;5030405;28;835;-63
2021/03/17 00:20:10;;;;;;;;;;;;;;;;;;5029736;28;837;-63
2021/03/17 00:22:36;;;;;;;;;;;;;;;;;;5029695;28;891;-63
2021/03/17 00:25:01;;;;;;;;;;;;;;;;;;5028776;28;1407;-62
2021/03/17 00:27:27;;;;;;;;;;;;;;;;;;5029632;28;922;-62
2021/03/17 00:29:52;;;;;;;;;;;;;;;;;;5029775;28;1914;-62
2021/03/17 00:32:17;;;;;;;;;;;;;;;;;;5030120;28;1036;-62
2021/03/17 00:34:43;;;;;;;;;;;;;;;;;;5029965;28;894;-62
2021/03/17 00:37:08;;;;;;;;;;;;;;;;;;5029521;28;846;-64
2021/03/17 00:39:33;;;;;;;;;;;;;;;;;;5029442;28;1155;-62
2021/03/17 00:41:59;;;;;;;;;;;;;;;;;;5028894;28;921;-63
2021/03/17 00:44:25;;;;;;;;;;;;;;;;;;5037887;28;1040;-64
2021/03/17 00:46:50;;;;;;;;;;;;;;;;;;5049717;28;902;-62
2021/03/17 00:49:15;;;;;;;;;;;;;;;;;;5048914;28;1894;-63
2021/03/17 00:51:41;;;;;;;;;;;;;;;;;;5045770;28;1148;-62
2021/03/17 00:54:06;;;;;;;;;;;;;;;;;;5051513;28;1158;-63
2021/03/17 00:56:31;;;;;;;;;;;;;;;;;;5048119;28;935;-63
2021/03/17 00:58:57;;;;;;;;;;;;;;;;;;5048585;28;807;-62
2021/03/17 01:01:22;;;;;;;;;;;;;;;;;;5049705;28;1294;-63
2021/03/17 01:03:47;;;;;;;;;;;;;;;;;;5048706;28;881;-64
2021/03/17 01:06:13;;;;;;;;;;;;;;;;;;5049151;28;865;-64
2021/03/17 01:08:38;;;;;;;;;;;;;;;;;;5048976;28;847;-63
2021/03/17 01:11:04;;;;;;;;;;;;;;;;;;5048850;28;1890;-64
2021/03/17 01:13:29;;;;;;;;;;;;;;;;;;5048766;28;870;-64
2021/03/17 01:15:55;;;;;;;;;;;;;;;;;;5049646;28;823;-62
2021/03/17 01:18:20;;;;;;;;;;;;;;;;;;5048453;28;880;-62
2021/03/17 01:20:46;;;;;;;;;;;;;;;;;;5048362;28;855;-62
2021/03/17 01:23:11;;;;;;;;;;;;;;;;;;5047539;28;1622;-61
2021/03/17 01:25:46;;;;;;;;;;;;;;;;;;5048896;28;839;-61
2021/03/17 01:28:12;;;;;;;;;;;;;;;;;;5048229;28;853;-61
2021/03/17 01:30:39;;;;;;;;;;;;;;;;;;5048491;28;1989;-62
2021/03/17 01:33:05;;;;;;;;;;;;;;;;;;5034661;28;1155;-62
2021/03/17 01:35:31;;;;;;;;;;;;;;;;;;5027753;28;843;-63
2021/03/17 01:37:56;;;;;;;;;;;;;;;;;;5048045;28;886;-62
2021/03/17 01:40:25;;;;;;;;;;;;;;;;;;5049049;28;886;-62
2021/03/17 01:42:53;;;;;;;;;;;;;;;;;;5049024;28;1152;-61
2021/03/17 01:45:19;;;;;;;;;;;;;;;;;;5047645;28;910;-63
2021/03/17 01:47:45;;;;;;;;;;;;;;;;;;5047962;28;819;-62
2021/03/17 01:50:31;;;;;;;;;;;;;;;;;;5047922;28;1981;-61
2021/03/17 01:52:59;;;;;;;;;;;;;;;;;;5050902;28;1591;-61
2021/03/17 01:55:25;;;;;;;;;;;;;;;;;;5055176;28;1084;-64
2021/03/17 01:57:50;;;;;;;;;;;;;;;;;;5048845;28;910;-62
2021/03/17 02:00:17;;;;;;;;;;;;;;;;;;5047123;28;1073;-62
2021/03/17 02:02:49;;;;;;;;;;;;;;;;;;5048195;28;838;-61
2021/03/17 02:05:15;;;;;;;;;;;;;;;;;;5047385;28;664;-61
2021/03/17 02:07:41;;;;;;;;;;;;;;;;;;5046971;28;851;-62
2021/03/17 02:10:14;;;;;;;;;;;;;;;;;;5047257;28;1941;-61
2021/03/17 02:12:49;;;;;;;;;;;;;;;;;;5047380;28;851;-61
2021/03/17 02:15:26;;;;;;;;;;;;;;;;;;5047461;28;1017;-61
2021/03/17 02:17:53;;;;;;;;;;;;;;;;;;5047234;28;886;-62
2021/03/17 02:20:21;;;;;;;;;;;;;;;;;;5047948;28;859;-62
2021/03/17 02:22:49;;;;;;;;;;;;;;;;;;5047606;28;826;-62
2021/03/17 02:25:33;;;;;;;;;;;;;;;;;;5047360;28;869;-61
2021/03/17 02:28:10;;;;;;;;;;;;;;;;;;5047262;28;910;-62
2021/03/17 02:30:55;;;;;;;;;;;;;;;;;;5046694;28;1967;-62
2021/03/17 02:33:27;;;;;;;;;;;;;;;;;;5047316;28;847;-61
2021/03/17 02:35:55;;;;;;;;;;;;;;;;;;5047831;28;874;-62
2021/03/17 02:38:21;;;;;;;;;;;;;;;;;;5047301;28;819;-61
2021/03/17 02:40:46;;;;;;;;;;;;;;;;;;5046536;28;823;-61
2021/03/17 02:43:19;;;;;;;;;;;;;;;;;;5045070;28;1249;-61
2021/03/17 02:45:47;;;;;;;;;;;;;;;;;;5046928;28;918;-61
2021/03/17 02:48:17;;;;;;;;;;;;;;;;;;5046565;28;1085;-62
2021/03/17 02:50:43;;;;;;;;;;;;;;;;;;5046808;28;1893;-61
2021/03/17 02:53:10;;;;;;;;;;;;;;;;;;5051543;28;1082;-61
2021/03/17 02:55:42;;;;;;;;;;;;;;;;;;5052966;28;1076;-61
2021/03/17 02:58:08;;;;;;;;;;;;;;;;;;5047010;28;878;-61
2021/03/17 03:00:33;;;;;;;;;;;;;;;;;;5047038;28;869;-61
2021/03/17 03:02:59;;;;;;;;;;;;;;;;;;5046653;28;909;-61
2021/03/17 03:05:26;;;;;;;;;;;;;;;;;;5046830;28;643;-63
2021/03/17 03:07:53;;;;;;;;;;;;;;;;;;5046045;28;1231;-62
2021/03/17 03:10:19;;;;;;;;;;;;;;;;;;5046468;28;1894;-62
2021/03/17 03:12:46;;;;;;;;;;;;;;;;;;5046254;28;875;-62
2021/03/17 03:15:14;;;;;;;;;;;;;;;;;;5046561;28;839;-61
2021/03/17 03:17:40;;;;;;;;;;;;;;;;;;5046837;28;824;-62
2021/03/17 03:20:13;;;;;;;;;;;;;;;;;;5045473;28;839;-62
2021/03/17 03:22:45;;;;;;;;;;;;;;;;;;5046353;28;835;-62
2021/03/17 03:25:11;;;;;;;;;;;;;;;;;;5044160;28;1635;-62
2021/03/17 03:27:37;;;;;;;;;;;;;;;;;;5035691;28;842;-61
2021/03/17 03:30:10;;;;;;;;;;;;;;;;;;5027027;28;1910;-62
2021/03/17 03:32:35;;;;;;;;;;;;;;;;;;5026441;28;1238;-62
2021/03/17 03:35:01;;;;;;;;;;;;;;;;;;5027262;28;918;-61
2021/03/17 03:37:27;;;;;;;;;;;;;;;;;;5026458;28;868;-61
2021/03/17 03:39:52;;;;;;;;;;;;;;;;;;5026903;28;978;-61
2021/03/17 03:42:17;;;;;;;;;;;;;;;;;;5027148;28;855;-62
2021/03/17 03:44:43;;;;;;;;;;;;;;;;;;5026650;28;1138;-61
2021/03/17 03:47:08;;;;;;;;;;;;;;;;;;5047513;28;1007;-62
2021/03/17 03:49:34;;;;;;;;;;;;;;;;;;5046196;28;1898;-61
2021/03/17 03:52:04;;;;;;;;;;;;;;;;;;5046494;28;993;-62
2021/03/17 03:54:36;;;;;;;;;;;;;;;;;;5057255;28;1160;-61
2021/03/17 03:57:04;;;;;;;;;;;;;;;;;;5046098;28;859;-63
2021/03/17 03:59:36;;;;;;;;;;;;;;;;;;5048347;28;922;-62
2021/03/17 04:02:01;;;;;;;;;;;;;;;;;;5048661;28;878;-61
2021/03/17 04:04:28;;;;;;;;;;;;;;;;;;5049034;28;1559;-62
2021/03/17 04:06:55;;;;;;;;;;;;;;;;;;5043550;28;915;-61
2021/03/17 04:09:24;;;;;;;;;;;;;;;;;;5042162;28;1890;-61
2021/03/17 04:11:50;;;;;;;;;;;;;;;;;;5030490;28;757;-63
2021/03/17 04:14:17;;;;;;;;;;;;;;;;;;5030161;28;886;-61
2021/03/17 04:16:42;;;;;;;;;;;;;;;;;;5029473;28;859;-62
2021/03/17 04:19:09;;;;;;;;;;;;;;;;;;5029978;28;830;-61
2021/03/17 04:21:37;;;;;;;;;;;;;;;;;;5047314;28;884;-61
2021/03/17 04:24:03;;;;;;;;;;;;;;;;;;5050109;28;831;-62
2021/03/17 04:26:31;;;;;;;;;;;;;;;;;;5049288;28;933;-63
2021/03/17 04:28:57;;;;;;;;;;;;;;;;;;5048964;28;1971;-64
2021/03/17 04:31:23;;;;;;;;;;;;;;;;;;5049615;28;704;-63
2021/03/17 04:33:48;;;;;;;;;;;;;;;;;;5049449;28;870;-62
2021/03/17 04:36:14;;;;;;;;;;;;;;;;;;5045037;28;1442;-61
2021/03/17 04:38:41;;;;;;;;;;;;;;;;;;5028556;28;1289;-62
2021/03/17 04:41:07;;;;;;;;;;;;;;;;;;5032452;28;890;-63
2021/03/17 04:43:35;;;;;;;;;;;;;;;;;;5043959;28;862;-63
2021/03/17 04:46:01;;;;;;;;;;;;;;;;;;5028496;28;941;-62
2021/03/17 04:48:27;;;;;;;;;;;;;;;;;;5029072;28;1132;-63
2021/03/17 04:50:53;;;;;;;;;;;;;;;;;;5029513;28;1985;-62
2021/03/17 04:53:19;;;;;;;;;;;;;;;;;;5047827;28;1062;-63
2021/03/17 04:55:44;;;;;;;;;;;;;;;;;;5053740;28;965;-64
2021/03/17 04:58:11;;;;;;;;;;;;;;;;;;5049359;28;863;-63
2021/03/17 05:00:38;;;;;;;;;;;;;;;;;;5048451;28;851;-63
2021/03/17 05:03:04;;;;;;;;;;;;;;;;;;5048082;28;890;-63
2021/03/17 05:05:31;;;;;;;;;;;;;;;;;;5046836;28;1112;-62
2021/03/17 05:07:56;;;;;;;;;;;;;;;;;;5028696;28;903;-63
2021/03/17 05:10:24;;;;;;;;;;;;;;;;;;5029041;28;1956;-63
2021/03/17 05:12:49;;;;;;;;;;;;;;;;;;5028530;28;874;-62
2021/03/17 05:15:16;;;;;;;;;;;;;;;;;;5028295;28;906;-64
2021/03/17 05:17:43;;;;;;;;;;;;;;;;;;5028521;28;950;-63
2021/03/17 05:20:12;;;;;;;;;;;;;;;;;;5028715;28;858;-63
2021/03/17 05:22:38;;;;;;;;;;;;;;;;;;5028712;28;823;-63
2021/03/17 05:25:06;;;;;;;;;;;;;;;;;;5042736;28;855;-62
2021/03/17 05:27:32;;;;;;;;;;;;;;;;;;5047526;28;906;-63
2021/03/17 05:29:58;;;;;;;;;;;;;;;;;;5047784;28;1894;-64
2021/03/17 05:32:25;;;;;;;;;;;;;;;;;;5049401;28;969;-62
2021/03/17 05:34:55;;;;;;;;;;;;;;;;;;5046812;28;942;-62
2021/03/17 05:37:21;;;;;;;;;;;;;;;;;;5047665;28;926;-62
2021/03/17 05:39:46;;;;;;;;;;;;;;;;;;5047933;28;870;-62
2021/03/17 05:42:12;;;;;;;;;;;;;;;;;;5047388;28;878;-63
2021/03/17 05:44:38;;;;;;;;;;;;;;;;;;5049250;28;1019;-61
2021/03/17 05:47:03;;;;;;;;;;;;;;;;;;5047735;28;933;-63
2021/03/17 05:49:29;;;;;;;;;;;;;;;;;;5047220;28;1898;-63
2021/03/17 05:51:54;;;;;;;;;;;;;;;;;;5048895;28;936;-62
2021/03/17 05:54:20;;;;;;;;;;;;;;;;;;5058849;28;1084;-63
2021/03/17 05:56:46;;;;;;;;;;;;;;;;;;5048342;28;937;-64
2021/03/17 05:59:12;;;;;;;;;;;;;;;;;;5047576;28;807;-62
2021/03/17 06:01:37;;;;;;;;;;;;;;;;;;5045401;28;1434;-63
2021/03/17 06:04:02;;;;;;;;;;;;;;;;;;5047915;28;878;-64
2021/03/17 06:06:29;;;;;;;;;;;;;;;;;;5047084;28;814;-62
2021/03/17 06:08:58;;;;;;;;;;;;;;;;;;5046075;28;1980;-62
2021/03/17 06:11:24;;;;;;;;;;;;;;;;;;5048167;28;897;-61
2021/03/17 06:13:50;;;;;;;;;;;;;;;;;;5047185;28;849;-63
2021/03/17 06:16:18;;;;;;;;;;;;;;;;;;5047433;28;803;-63
2021/03/17 06:18:45;;;;;;;;;;;;;;;;;;5047475;28;819;-64
2021/03/17 06:21:17;;;;;;;;;;;;;;;;;;5046735;28;921;-63
2021/03/17 06:23:43;;;;;;;;;;;;;;;;;;5046630;28;901;-64
2021/03/17 06:26:09;;;;;;;;;;;;;;;;;;5047127;28;842;-63
2021/03/17 06:28:35;;;;;;;;;;;;;;;;;;5047340;28;926;-63
2021/03/17 06:31:00;;;;;;;;;;;;;;;;;;5047218;28;1889;-65
2021/03/17 06:33:26;;;;;;;;;;;;;;;;;;5045270;28;1451;-64
2021/03/17 06:36:14;;;;;;;;;;;;;;;;;;5044461;28;863;-63
2021/03/17 06:38:40;;;;;;;;;;;;;;;;;;5026021;28;1736;-61
2021/03/17 06:41:05;;;;;;;;;;;;;;;;;;5026663;28;826;-63
2021/03/17 06:43:37;;;;;;;;;;;;;;;;;;5027257;28;890;-65
2021/03/17 06:46:02;;;;;;;;;;;;;;;;;;5027398;28;891;-63
2021/03/17 06:48:28;;;;;;;;;;;;;;;;;;5047297;28;1045;-63
2021/03/17 06:51:00;;;;;;;;;;;;;;;;;;5047811;28;1979;-64
2021/03/17 06:53:34;;;;;;;;;;;;;;;;;;5054034;28;1090;-60
2021/03/17 06:56:09;;;;;;;;;;;;;;;;;;5043350;28;962;-65
2021/03/17 06:58:42;;;;;;;;;;;;;;;;;;5040306;28;854;-63
2021/03/17 07:01:27;;;;;;;;;;;;;;;;;;5053206;28;1246;-64
2021/03/17 07:03:54;;;;;;;;;;;;;;;;;;5052146;28;1375;-64
2021/03/17 07:06:19;;;;;;;;;;;;;;;;;;5047825;28;1266;-64
2021/03/17 07:08:44;;;;;;;;;;;;;;;;;;5045791;28;724;-63
2021/03/17 07:11:10;;;;;;;;;;;;;;;;;;5046043;28;1933;-64
2021/03/17 07:13:35;;;;;;;;;;;;;;;;;;5046599;28;878;-64
2021/03/17 07:16:00;;;;;;;;;;;;;;;;;;5046275;28;815;-64
2021/03/17 07:18:27;;;;;;;;;;;;;;;;;;5046453;28;810;-63
2021/03/17 07:20:55;;;;;;;;;;;;;;;;;;5047313;28;890;-64
2021/03/17 07:23:20;;;;;;;;;;;;;;;;;;5046902;28;1204;-62
2021/03/17 07:26:16;;;;;;;;;;;;;;;;;;5046347;28;804;-64
2021/03/17 07:28:48;;;;;;;;;;;;;;;;;;5049993;28;2128;-65
2021/03/17 07:31:14;;;;;;;;;;;;;;;;;;5046547;28;1894;-65
2021/03/17 07:33:39;;;;;;;;;;;;;;;;;;5045446;28;1569;-64
2021/03/17 07:36:05;;;;;;;;;;;;;;;;;;5046344;28;957;-64
2021/03/17 07:38:30;;;;;;;;;;;;;;;;;;5031505;28;1166;-65
2021/03/17 07:40:56;;;;;;;;;;;;;;;;;;5052114;28;1169;-62
2021/03/17 07:43:25;;;;;;;;;;;;;;;;;;5052322;28;1165;-64
2021/03/17 07:45:51;;;;;;;;;;;;;;;;;;5064795;28;1088;-65
2021/03/17 07:48:17;;;;;;;;;;;;;;;;;;5060725;28;1203;-64
2021/03/17 07:50:43;;;;;;;;;;;;;;;;;;5055860;28;1894;-64
2021/03/17 07:53:10;;;;;;;;;;;;;;;;;;5054251;28;1305;-65
2021/03/17 07:55:38;;;;;;;;;;;;;;;;;;5056053;28;996;-62
2021/03/17 07:58:04;;;;;;;;;;;;;;;;;;5050038;28;1157;-62
2021/03/17 08:00:29;;;;;;;;;;;;;;;;;;5052190;28;1504;-62
2021/03/17 08:02:55;;;;;;;;;;;;;;;;;;5056621;28;1214;-63
2021/03/17 08:05:21;;;;;;;;;;;;;;;;;;5054110;28;1159;-62
2021/03/17 08:07:48;;;;;;;;;;;;;;;;;;5050214;28;1280;-62
2021/03/17 08:10:13;;;;;;;;;;;;;;;;;;5049662;28;1952;-61
2021/03/17 08:12:41;;;;;;;;;;;;;;;;;;5049233;28;839;-61
2021/03/17 08:15:07;;;;;;;;;;;;;;;;;;5053128;28;1744;-62
2021/03/17 08:17:34;;;;;;;;;;;;;;;;;;5062372;28;1165;-64
2021/03/17 08:20:15;;;;;;;;;;;;;;;;;;5053134;28;1145;-63
2021/03/17 08:22:41;;;;;;;;;;;;;;;;;;5051167;28;1086;-65
2021/03/17 08:25:08;;;;;;;;;;;;;;;;;;5065285;28;1592;-65
2021/03/17 08:27:34;;;;;;;;;;;;;;;;;;5054887;28;1084;-62
2021/03/17 08:30:08;;;;;;;;;;;;;;;;;;5064054;28;1970;-62
2021/03/17 08:32:52;;;;;;;;;;;;;;;;;;5068028;28;1086;-64
2021/03/17 08:35:17;;;;;;;;;;;;;;;;;;5069103;28;865;-64
2021/03/17 08:37:47;;;;;;;;;;;;;;;;;;5069337;28;822;-66
2021/03/17 08:40:32;;;;;;;;;;;;;;;;;;5068149;28;930;-64
2021/03/17 08:42:58;;;;;;;;;;;;;;;;;;5069932;28;1784;-65
2021/03/17 08:45:23;;;;;;;;;;;;;;;;;;5069109;28;902;-67
2021/03/17 08:47:50;;;;;;;;;;;;;;;;;;5069020;28;883;-64
2021/03/17 08:50:15;;;;;;;;;;;;;;;;;;5048121;28;1902;-65
2021/03/17 08:52:43;;;;;;;;;;;;;;;;;;5049489;28;1091;-63
2021/03/17 08:55:14;;;;;;;;;;;;;;;;;;5057352;28;1076;-66
2021/03/17 08:57:52;;;;;;;;;;;;;;;;;;5048119;28;874;-66
2021/03/17 09:00:36;;;;;;;;;;;;;;;;;;5049518;28;657;-63
2021/03/17 09:03:01;;;;;;;;;;;;;;;;;;5048846;28;895;-62
2021/03/17 09:05:29;;;;;;;;;;;;;;;;;;5048882;28;847;-64
2021/03/17 09:08:02;;;;;;;;;;;;;;;;;;5049994;28;903;-64
2021/03/17 09:10:47;;;;;;;;;;;;;;;;;;5048933;28;2020;-61
2021/03/17 09:13:13;;;;;;;;;;;;;;;;;;5048792;28;922;-63
2021/03/17 09:15:49;;;;;;;;;;;;;;;;;;5049056;28;997;-64
2021/03/17 09:18:15;;;;;;;;;;;;;;;;;;5028326;28;1716;-63
2021/03/17 09:20:43;;;;;;;;;;;;;;;;;;5027908;28;1033;-62
2021/03/17 09:23:10;;;;;;;;;;;;;;;;;;5045557;28;1102;-63
2021/03/17 09:25:38;;;;;;;;;;;;;;;;;;5068129;28;924;-62
2021/03/17 09:28:07;;;;;;;;;;;;;;;;;;5068086;28;819;-63
2021/03/17 09:30:37;;;;;;;;;;;;;;;;;;5066674;28;1925;-61
2021/03/17 09:33:04;;;;;;;;;;;;;;;;;;5058067;28;1920;-62
2021/03/17 09:35:30;;;;;;;;;;;;;;;;;;5047739;28;1028;-63
2021/03/17 09:38:00;;;;;;;;;;;;;;;;;;5065927;28;1080;-69
2021/03/17 09:40:25;;;;;;;;;;;;;;;;;;5049341;28;1119;-70
2021/03/17 09:42:51;;;;;;;;;;;;;;;;;;5048664;28;808;-63
2021/03/17 09:45:17;;;;;;;;;;;;;;;;;;5047746;28;823;-61
2021/03/17 09:47:43;;;;;;;;;;;;;;;;;;5049787;28;991;-62
2021/03/17 09:50:15;;;;;;;;;;;;;;;;;;5049099;28;1961;-63
2021/03/17 09:52:44;;;;;;;;;;;;;;;;;;5043038;28;1116;-61
2021/03/17 09:55:31;;;;;;;;;;;;;;;;;;5067504;28;1171;-61
2021/03/17 09:58:00;;;;;;;;;;;;;;;;;;5066287;28;855;-63
2021/03/17 10:00:26;;;;;;;;;;;;;;;;;;5067678;28;961;-70
2021/03/17 10:02:52;;;;;;;;;;;;;;;;;;5068688;28;874;-65
2021/03/17 10:05:17;;;;;;;;;;;;;;;;;;5068048;28;822;-66
2021/03/17 10:07:42;;;;;;;;;;;;;;;;;;5068032;28;846;-67
2021/03/17 10:10:08;;;;;;;;;;;;;;;;;;5067504;28;1988;-69
2021/03/17 10:12:33;;;;;;;;;;;;;;;;;;5067663;28;905;-65
2021/03/17 10:15:09;;;;;;;;;;;;;;;;;;5067986;28;870;-68
2021/03/17 10:17:35;;;;;;;;;;;;;;;;;;5067007;28;874;-65
2021/03/17 10:20:04;;;;;;;;;;;;;;;;;;5067135;28;897;-67
2021/03/17 10:22:30;;;;;;;;;;;;;;;;;;5028149;28;1464;-65
2021/03/17 10:24:56;;;;;;;;;;;;;;;;;;5027643;28;854;-67
2021/03/17 10:27:27;;;;;;;;;;;;;;;;;;5032827;28;938;-66
2021/03/17 10:29:58;;;;;;;;;;;;;;;;;;5047989;28;2039;-66
2021/03/17 10:32:23;;;;;;;;;;;;;;;;;;5036812;28;2001;-67
2021/03/17 10:34:49;;;;;;;;;;;;;;;;;;5046477;28;886;-67
2021/03/17 10:37:19;;;;;;;;;;;;;;;;;;5047494;28;906;-64
2021/03/17 10:39:44;;;;;;;;;;;;;;;;;;5047935;28;917;-64
2021/03/17 10:42:20;;;;;;;;;;;;;;;;;;5047220;28;842;-66
2021/03/17 10:44:59;;;;;;;;;;;;;;;;;;5047463;28;882;-68
2021/03/17 10:47:25;;;;;;;;;;;;;;;;;;5048467;28;887;-68
2021/03/17 10:49:50;;;;;;;;;;;;;;;;;;5047484;28;1921;-68
2021/03/17 10:52:15;;;;;;;;;;;;;;;;;;5035077;28;1496;-66
2021/03/17 10:54:43;;;;;;;;;;;;;;;;;;5040800;28;1075;-67
2021/03/17 10:57:09;;;;;;;;;;;;;;;;;;5027090;28;898;-68
2021/03/17 10:59:38;;;;;;;;;;;;;;;;;;5026423;28;894;-66
2021/03/17 11:02:15;;;;;;;;;;;;;;;;;;5027405;28;925;-68
2021/03/17 11:04:59;;;;;;;;;;;;;;;;;;5027588;28;914;-68
2021/03/17 11:07:25;;;;;;;;;;;;;;;;;;5028212;28;966;-68
2021/03/17 11:09:51;;;;;;;;;;;;;;;;;;5032056;28;1902;-68
2021/03/17 11:12:16;;;;;;;;;;;;;;;;;;5031421;28;812;-68
2021/03/17 11:14:42;;;;;;;;;;;;;;;;;;5031070;28;934;-68
2021/03/17 11:17:08;;;;;;;;;;;;;;;;;;5031126;28;928;-65
2021/03/17 11:19:33;;;;;;;;;;;;;;;;;;5029926;28;1469;-67
2021/03/17 11:21:59;;;;;;;;;;;;;;;;;;5031128;28;932;-68
2021/03/17 11:24:24;;;;;;;;;;;;;;;;;;5031716;28;946;-68
2021/03/17 11:26:50;;;;;;;;;;;;;;;;;;5031441;28;890;-67
2021/03/17 11:29:15;;;;;;;;;;;;;;;;;;5031024;28;1971;-66
2021/03/17 11:31:41;;;;;;;;;;;;;;;;;;5030857;28;926;-68
2021/03/17 11:34:09;;;;;;;;;;;;;;;;;;5030760;28;859;-68
2021/03/17 11:36:35;;;;;;;;;;;;;;;;;;5035477;28;1381;-63
2021/03/17 11:39:03;;;;;;;;;;;;;;;;;;5043113;28;1397;-64
2021/03/17 11:41:28;;;;;;;;;;;;;;;;;;5046987;28;894;-64
2021/03/17 11:43:54;;;;;;;;;;;;;;;;;;5058717;28;1142;-65
2021/03/17 11:46:20;;;;;;;;;;;;;;;;;;5049234;28;890;-71
2021/03/17 11:48:46;;;;;;;;;;;;;;;;;;5049719;28;831;-66
2021/03/17 11:51:11;;;;;;;;;;;;;;;;;;5042754;28;1973;-63
2021/03/17 11:53:37;;;;;;;;;;;;;;;;;;5041222;28;1142;-65
2021/03/17 11:56:03;;;;;;;;;;;;;;;;;;5049285;28;1072;-65
2021/03/17 11:58:29;;;;;;;;;;;;;;;;;;5052387;28;1067;-66
2021/03/17 12:00:54;;;;;;;;;;;;;;;;;;5050265;28;843;-64
2021/03/17 12:03:20;;;;;;;;;;;;;;;;;;5056512;28;1145;-64
2021/03/17 12:05:45;;;;;;;;;;;;;;;;;;5050698;28;1004;-64
2021/03/17 12:08:12;;;;;;;;;;;;;;;;;;5049778;28;894;-64
2021/03/17 12:10:38;;;;;;;;;;;;;;;;;;5050071;28;1878;-64
2021/03/17 12:13:04;;;;;;;;;;;;;;;;;;5067195;28;996;-65
2021/03/17 12:15:29;;;;;;;;;;;;;;;;;;5069455;28;851;-65
2021/03/17 12:17:56;;;;;;;;;;;;;;;;;;5051182;28;1171;-66
2021/03/17 12:20:22;;;;;;;;;;;;;;;;;;5049916;28;1273;-65
2021/03/17 12:22:48;;;;;;;;;;;;;;;;;;5049304;28;954;-66
2021/03/17 12:25:13;;;;;;;;;;;;;;;;;;5060784;28;1421;-64
2021/03/17 12:27:39;;;;;;;;;;;;;;;;;;5069374;28;882;-65
2021/03/17 12:30:06;;;;;;;;;;;;;;;;;;5053409;28;1902;-64
2021/03/17 12:32:31;;;;;;;;;;;;;;;;;;5060986;28;1210;-65
2021/03/17 12:34:57;;;;;;;;;;;;;;;;;;5057672;28;1304;-65
2021/03/17 12:37:22;;;;;;;;;;;;;;;;;;5055174;28;1230;-64
2021/03/17 12:39:48;;;;;;;;;;;;;;;;;;5059443;28;1198;-65
2021/03/17 12:42:13;;;;;;;;;;;;;;;;;;5068959;28;906;-66
2021/03/17 12:44:38;;;;;;;;;;;;;;;;;;5058772;28;1194;-61
2021/03/17 12:47:05;;;;;;;;;;;;;;;;;;5060443;28;1170;-65
2021/03/17 12:49:31;;;;;;;;;;;;;;;;;;5050698;28;1909;-65
2021/03/17 12:51:56;;;;;;;;;;;;;;;;;;5038120;28;1300;-62
2021/03/17 12:54:22;;;;;;;;;;;;;;;;;;5058950;28;1107;-65
2021/03/17 12:56:47;;;;;;;;;;;;;;;;;;5067721;28;879;-65
2021/03/17 12:59:16;;;;;;;;;;;;;;;;;;5068188;28;933;-63
2021/03/17 13:01:41;;;;;;;;;;;;;;;;;;5068247;28;851;-62
2021/03/17 13:04:07;;;;;;;;;;;;;;;;;;5053489;28;1153;-60
2021/03/17 13:06:33;;;;;;;;;;;;;;;;;;5048256;28;899;-64
2021/03/17 13:09:04;;;;;;;;;;;;;;;;;;5047294;28;1755;-61
2021/03/17 13:11:30;;;;;;;;;;;;;;;;;;5041344;28;1965;-62
2021/03/17 13:13:56;;;;;;;;;;;;;;;;;;5047483;28;1882;-62
2021/03/17 13:16:21;;;;;;;;;;;;;;;;;;5047414;28;1598;-62
2021/03/17 13:18:48;;;;;;;;;;;;;;;;;;5028245;28;985;-63
2021/03/17 13:21:13;;;;;;;;;;;;;;;;;;5027252;28;855;-61
2021/03/17 13:23:38;;;;;;;;;;;;;;;;;;5028190;28;859;-63
2021/03/17 13:26:04;;;;;;;;;;;;;;;;;;5027689;28;866;-62
2021/03/17 13:28:29;;;;;;;;;;;;;;;;;;5027968;28;851;-62
2021/03/17 13:30:54;;;;;;;;;;;;;;;;;;5028927;28;1955;-62
2021/03/17 13:33:20;;;;;;;;;;;;;;;;;;5031213;28;850;-63
2021/03/17 13:35:46;;;;;;;;;;;;;;;;;;5048009;28;842;-63
2021/03/17 13:38:13;;;;;;;;;;;;;;;;;;5055893;28;1104;-63
2021/03/17 13:40:38;;;;;;;;;;;;;;;;;;5048012;28;1357;-63
2021/03/17 13:43:04;;;;;;;;;;;;;;;;;;5047590;28;1064;-63
2021/03/17 13:45:31;;;;;;;;;;;;;;;;;;5049167;28;1069;-62
2021/03/17 13:47:57;;;;;;;;;;;;;;;;;;5054704;28;1420;-62
2021/03/17 13:50:22;;;;;;;;;;;;;;;;;;5056290;28;1898;-62
2021/03/17 13:52:48;;;;;;;;;;;;;;;;;;5050514;28;1315;-62
2021/03/17 13:55:13;;;;;;;;;;;;;;;;;;5050976;28;1224;-61
2021/03/17 13:57:39;;;;;;;;;;;;;;;;;;5047498;28;858;-62
2021/03/17 14:00:06;;;;;;;;;;;;;;;;;;5049062;28;1226;-61
2021/03/17 14:02:31;;;;;;;;;;;;;;;;;;5050900;28;1080;-62
2021/03/17 14:04:56;;;;;;;;;;;;;;;;;;5067292;28;862;-64
2021/03/17 14:07:25;;;;;;;;;;;;;;;;;;5067826;28;881;-62
2021/03/17 14:09:50;;;;;;;;;;;;;;;;;;5061954;28;1977;-61
2021/03/17 14:12:15;;;;;;;;;;;;;;;;;;5056826;28;1217;-61
2021/03/17 14:14:41;;;;;;;;;;;;;;;;;;5063894;28;1083;-63
2021/03/17 14:17:06;;;;;;;;;;;;;;;;;;5066483;28;843;-61
2021/03/17 14:19:31;;;;;;;;;;;;;;;;;;5036220;28;1687;-61
2021/03/17 14:21:57;;;;;;;;;;;;;;;;;;5027209;28;876;-63
2021/03/17 14:24:23;;;;;;;;;;;;;;;;;;5027313;28;835;-62
2021/03/17 14:26:48;;;;;;;;;;;;;;;;;;5026480;28;835;-62
2021/03/17 14:29:14;;;;;;;;;;;;;;;;;;5026496;28;1964;-62
2021/03/17 14:31:39;;;;;;;;;;;;;;;;;;5027144;28;1679;-62
2021/03/17 14:34:04;;;;;;;;;;;;;;;;;;5026997;28;812;-63
2021/03/17 14:36:30;;;;;;;;;;;;;;;;;;5026591;28;1051;-62
2021/03/17 14:38:56;;;;;;;;;;;;;;;;;;5061341;28;1134;-63
2021/03/17 14:41:21;;;;;;;;;;;;;;;;;;5063877;28;1083;-62
2021/03/17 14:43:47;;;;;;;;;;;;;;;;;;5060258;28;1068;-62
2021/03/17 14:46:13;;;;;;;;;;;;;;;;;;5055643;28;1434;-62
2021/03/17 14:48:38;;;;;;;;;;;;;;;;;;5046358;28;854;-62
2021/03/17 14:51:04;;;;;;;;;;;;;;;;;;5046923;28;1898;-62
2021/03/17 14:53:30;;;;;;;;;;;;;;;;;;5053434;28;1099;-62
2021/03/17 14:55:55;;;;;;;;;;;;;;;;;;5067325;28;839;-62
2021/03/17 14:58:21;;;;;;;;;;;;;;;;;;5059493;28;1165;-62
2021/03/17 15:00:46;;;;;;;;;;;;;;;;;;5051615;28;1151;-62
2021/03/17 15:03:11;;;;;;;;;;;;;;;;;;5045755;28;910;-62
2021/03/17 15:05:37;;;;;;;;;;;;;;;;;;5046537;28;843;-62
2021/03/17 15:08:02;;;;;;;;;;;;;;;;;;5046775;28;882;-62
2021/03/17 15:10:28;;;;;;;;;;;;;;;;;;5045172;28;1965;-61
2021/03/17 15:12:53;;;;;;;;;;;;;;;;;;5044387;28;1467;-61
2021/03/17 15:15:19;;;;;;;;;;;;;;;;;;5026356;28;894;-62
2021/03/17 15:17:45;;;;;;;;;;;;;;;;;;5025779;28;739;-61
2021/03/17 15:20:12;;;;;;;;;;;;;;;;;;5026351;28;867;-61
2021/03/17 15:22:38;;;;;;;;;;;;;;;;;;5043901;28;946;-62
2021/03/17 15:25:04;;;;;;;;;;;;;;;;;;5046307;28;849;-62
2021/03/17 15:27:29;;;;;;;;;;;;;;;;;;5046237;28;1404;-62
2021/03/17 15:29:55;;;;;;;;;;;;;;;;;;5047658;28;1893;-62
2021/03/17 15:32:20;;;;;;;;;;;;;;;;;;5044634;28;1297;-62
2021/03/17 15:34:47;;;;;;;;;;;;;;;;;;5045734;28;926;-62
2021/03/17 15:37:12;;;;;;;;;;;;;;;;;;5046341;28;1081;-62
2021/03/17 15:39:38;;;;;;;;;;;;;;;;;;5028917;28;1613;-61
2021/03/17 15:42:03;;;;;;;;;;;;;;;;;;5025742;28;819;-61
2021/03/17 15:44:29;;;;;;;;;;;;;;;;;;5026462;28;1164;-63
2021/03/17 15:46:54;;;;;;;;;;;;;;;;;;5064297;28;1214;-62
2021/03/17 15:49:20;;;;;;;;;;;;;;;;;;5066050;28;1905;-62
2021/03/17 15:51:45;;;;;;;;;;;;;;;;;;5065163;28;994;-61
2021/03/17 15:54:11;;;;;;;;;;;;;;;;;;5053573;28;1085;-63
2021/03/17 15:56:36;;;;;;;;;;;;;;;;;;5049943;28;799;-63
2021/03/17 15:59:01;;;;;;;;;;;;;;;;;;5049538;28;1135;-61
2021/03/17 16:01:27;;;;;;;;;;;;;;;;;;5065631;28;1159;-62
2021/03/17 16:03:52;;;;;;;;;;;;;;;;;;5058303;28;1247;-62
2021/03/17 16:06:18;;;;;;;;;;;;;;;;;;5050749;28;1021;-63
2021/03/17 16:08:43;;;;;;;;;;;;;;;;;;5048942;28;889;-61
2021/03/17 16:11:09;;;;;;;;;;;;;;;;;;5059668;28;1889;-63
2021/03/17 16:13:34;;;;;;;;;;;;;;;;;;5060577;28;1170;-62
2021/03/17 16:16:01;;;;;;;;;;;;;;;;;;5069273;28;893;-62
2021/03/17 16:18:27;;;;;;;;;;;;;;;;;;5069944;28;846;-62
2021/03/17 16:20:52;;;;;;;;;;;;;;;;;;5066992;28;1056;-63
2021/03/17 16:23:17;;;;;;;;;;;;;;;;;;5068020;28;898;-62
2021/03/17 16:25:43;;;;;;;;;;;;;;;;;;5068870;28;826;-62
2021/03/17 16:28:08;;;;;;;;;;;;;;;;;;5069742;28;863;-62
2021/03/17 16:30:36;;;;;;;;;;;;;;;;;;5068779;28;1918;-62
2021/03/17 16:33:02;;;;;;;;;;;;;;;;;;5063585;28;1553;-63
2021/03/17 16:35:28;;;;;;;;;;;;;;;;;;5049367;28;879;-63
2021/03/17 16:37:53;;;;;;;;;;;;;;;;;;5030554;28;1069;-62
2021/03/17 16:40:19;;;;;;;;;;;;;;;;;;5028268;28;843;-61
2021/03/17 16:42:44;;;;;;;;;;;;;;;;;;5037664;28;1223;-61
2021/03/17 16:45:10;;;;;;;;;;;;;;;;;;5052177;28;1777;-62
2021/03/17 16:47:35;;;;;;;;;;;;;;;;;;5048514;28;1766;-62
2021/03/17 16:50:01;;;;;;;;;;;;;;;;;;5050133;28;1933;-62
2021/03/17 16:52:26;;;;;;;;;;;;;;;;;;5044915;28;1365;-63
2021/03/17 16:54:52;;;;;;;;;;;;;;;;;;5053425;28;1290;-62
2021/03/17 16:57:17;;;;;;;;;;;;;;;;;;5061485;28;1432;-62
2021/03/17 16:59:42;;;;;;;;;;;;;;;;;;5067168;28;1472;-62
2021/03/17 17:02:08;;;;;;;;;;;;;;;;;;5064232;28;1322;-61
2021/03/17 17:04:34;;;;;;;;;;;;;;;;;;5053098;28;1624;-61
2021/03/17 17:06:59;;;;;;;;;;;;;;;;;;5038680;28;1100;-62
2021/03/17 17:09:24;;;;;;;;;;;;;;;;;;5037692;28;1890;-62
2021/03/17 17:11:50;;;;;;;;;;;;;;;;;;5059057;28;1183;-62